Lewisburg, Louisiana
Current Conditions -  °F | °C
As of 2:53 PM on Tuesday 27 Jan 2015 (Local Time) from KASD Reporting Station
Clear Clear  
Wind Chill: 74°   Ceiling: Unl
Heat Index: 74°   Visibility: 10mi
Dew Point: 34°   Wind: 9mph
Humidity: 23%   Direction: 310°NW
Pressure: 30.05"   Gusts: NA
Location:  30.3898°N, 90.0068°W
Report Text: KASD 272053Z AUTO 31008KT 10SM CLR 23/01 A3005 RMK AO2 SLP177 T02330011 55016
Loading
Personal Weather Stations






























Interactive Weather Map New forecast layout! Learn more

10-Day Weather Forecast

Advertisements
Track Severe Weather on mobile